Schneifelwetter: Wetterstation Hallschlag, 537 m . NN
Wetterdaten: Dienstag, 21.06.2011
Datum Zeit Temp. A. Feuchte A. Luftdruck Regen Wind Richtung Richtung Sonnenschein Helligkeit T Regen Taupunkt Windchill
21.06.2011 00:01 13,2 C 96 % 1013 hPa 0,3 l/m 17,9 km/h (3 Bft) W22.5 265 0 min 0 lux 15,00 min 12,6 C 8,0 C
21.06.2011 00:16 13,1 C 96 % 1013 hPa 0,0 l/m 10,0 km/h (2 Bft) W-SW 250 0 min 0 lux 0,00 min 12,5 C 11,0 C
21.06.2011 00:31 13,0 C 96 % 1013 hPa 0,3 l/m 7,8 km/h (2 Bft) W-SW 245 0 min 0 lux 15,00 min 12,4 C 12,1 C
21.06.2011 00:46 13,0 C 96 % 1013 hPa 0,3 l/m 0,3 km/h (0 Bft) SW 235 0 min 0 lux 15,00 min 12,4 C 13,0 C
21.06.2011 01:01 13,0 C 96 % 1013 hPa 0,0 l/m 1,0 km/h (0 Bft) SW 235 0 min 0 lux 0,00 min 12,4 C 13,0 C
21.06.2011 01:16 13,0 C 96 % 1013 hPa 0,3 l/m 0,7 km/h (0 Bft) SW 235 0 min 0 lux 15,00 min 12,4 C 13,0 C
21.06.2011 01:31 13,1 C 96 % 1013 hPa 0,0 l/m 6,1 km/h (2 Bft) W-SW67.5 250 0 min 0 lux 0,00 min 12,5 C 13,1 C
21.06.2011 01:46 13,2 C 96 % 1013 hPa 0,0 l/m 1,8 km/h (1 Bft) W-SW22.5 255 0 min 0 lux 0,00 min 12,6 C 13,2 C
21.06.2011 02:01 13,2 C 96 % 1013 hPa 0,3 l/m 0,0 km/h (0 Bft) W-SW 240 0 min 0 lux 15,00 min 12,6 C 13,2 C
21.06.2011 02:16 13,3 C 97 % 1013 hPa 0,0 l/m 8,9 km/h (2 Bft) W-SW 240 0 min 0 lux 0,00 min 12,8 C 11,8 C
21.06.2011 02:31 13,3 C 97 % 1013 hPa 0,9 l/m 6,3 km/h (2 Bft) W-SW 240 0 min 0 lux 15,00 min 12,8 C 13,3 C
21.06.2011 02:47 13,3 C 97 % 1013 hPa 0,0 l/m 8,9 km/h (2 Bft) W-SW 240 0 min 0 lux 0,00 min 12,8 C 11,8 C
21.06.2011 03:02 13,3 C 97 % 1013 hPa 0,0 l/m 9,3 km/h (2 Bft) W-SW 245 0 min 0 lux 0,00 min 12,8 C 11,6 C
21.06.2011 03:17 13,2 C 96 % 1013 hPa 0,0 l/m 12,7 km/h (3 Bft) W-SW 250 0 min 0 lux 0,00 min 12,6 C 9,9 C
21.06.2011 03:32 13,3 C 97 % 1013 hPa 0,0 l/m 16,1 km/h (3 Bft) W-SW22.5 250 0 min 0 lux 0,00 min 12,8 C 8,7 C
21.06.2011 03:47 13,3 C 97 % 1012 hPa 0,0 l/m 15,9 km/h (3 Bft) W-SW45 250 0 min 0 lux 0,00 min 12,8 C 8,8 C
21.06.2011 04:02 13,2 C 97 % 1012 hPa 0,0 l/m 16,3 km/h (3 Bft) W-SW22.5 255 0 min 0 lux 0,00 min 12,7 C 8,6 C
21.06.2011 04:17 13,2 C 97 % 1012 hPa 0,0 l/m 8,2 km/h (2 Bft) W-SW 250 0 min 0 lux 0,00 min 12,7 C 12,1 C
21.06.2011 04:32 13,2 C 97 % 1012 hPa 0,0 l/m 1,9 km/h (1 Bft) W-SW 250 0 min 0 lux 0,00 min 12,7 C 13,2 C
21.06.2011 04:47 13,2 C 97 % 1012 hPa 0,0 l/m 8,0 km/h (2 Bft) W-SW22.5 240 0 min 0 lux 0,00 min 12,7 C 12,2 C
21.06.2011 05:02 13,2 C 97 % 1012 hPa 0,0 l/m 10,1 km/h (2 Bft) SW22.5 235 0 min 0 lux 0,00 min 12,7 C 11,1 C
21.06.2011 05:17 13,4 C 97 % 1012 hPa 0,0 l/m 14,9 km/h (3 Bft) W-SW45 255 0 min 33 lux 0,00 min 12,9 C 9,3 C
21.06.2011 05:32 13,6 C 97 % 1012 hPa 0,0 l/m 18,4 km/h (3 Bft) W-SW45 240 0 min 98 lux 0,00 min 13,1 C 8,4 C
21.06.2011 05:47 13,7 C 97 % 1012 hPa 3,3 l/m 16,0 km/h (3 Bft) SW22.5 235 0 min 179 lux 15,00 min 13,2 C 9,3 C
21.06.2011 06:02 13,8 C 98 % 1012 hPa 0,0 l/m 24,8 km/h (4 Bft) SW45 225 0 min 287 lux 0,00 min 13,5 C 7,0 C
21.06.2011 06:16 13,8 C 98 % 1012 hPa 0,9 l/m 23,2 km/h (4 Bft) SW45 230 0 min 292 lux 14,00 min 13,5 C 7,4 C
21.06.2011 06:31 13,8 C 98 % 1012 hPa 0,0 l/m 17,7 km/h (3 Bft) SW45 230 0 min 817 lux 0,00 min 13,5 C 8,9 C
21.06.2011 06:46 13,8 C 98 % 1012 hPa 0,0 l/m 16,7 km/h (3 Bft) SW45 225 0 min 2,06 klux 0,00 min 13,5 C 9,2 C
21.06.2011 07:01 13,8 C 98 % 1012 hPa 0,0 l/m 17,3 km/h (3 Bft) W-SW45 240 0 min 2,51 klux 0,00 min 13,5 C 9,0 C
21.06.2011 07:16 14,0 C 98 % 1012 hPa 0,0 l/m 16,2 km/h (3 Bft) W-SW22.5 255 0 min 4,54 klux 0,00 min 13,7 C 9,6 C
21.06.2011 07:31 14,2 C 98 % 1012 hPa 0,3 l/m 23,9 km/h (4 Bft) SW45 225 0 min 9,0 klux 15,00 min 13,9 C 7,8 C
21.06.2011 07:46 14,3 C 97 % 1013 hPa 0,0 l/m 25,8 km/h (4 Bft) SW45 230 0 min 10,1 klux 0,00 min 13,8 C 7,5 C
21.06.2011 08:01 14,4 C 97 % 1012 hPa 0,0 l/m 27,0 km/h (4 Bft) SW45 230 0 min 12,2 klux 0,00 min 13,9 C 7,4 C
21.06.2011 08:16 14,7 C 97 % 1012 hPa 0,0 l/m 25,5 km/h (4 Bft) SW45 220 0 min 18,3 klux 0,00 min 14,2 C 8,1 C
21.06.2011 08:31 14,8 C 96 % 1013 hPa 0,0 l/m 22,6 km/h (4 Bft) W-SW67.5 240 0 min 11,1 klux 0,00 min 14,2 C 8,9 C
21.06.2011 08:47 15,0 C 95 % 1013 hPa 0,0 l/m 23,8 km/h (4 Bft) W-SW45 250 0 min 26,7 klux 0,00 min 14,2 C 8,9 C
21.06.2011 09:01 15,0 C 94 % 1013 hPa 0,3 l/m 31,1 km/h (5 Bft) W-SW45 250 0 min 22,3 klux 14,00 min 14,0 C 7,5 C
21.06.2011 09:16 15,0 C 94 % 1013 hPa 0,0 l/m 26,2 km/h (4 Bft) SW22.5 230 0 min 14,1 klux 0,00 min 14,0 C 8,4 C
21.06.2011 09:31 15,2 C 93 % 1013 hPa 0,0 l/m 23,9 km/h (4 Bft) SW67.5 225 0 min 25,1 klux 0,00 min 14,1 C 9,1 C
21.06.2011 09:46 14,6 C 93 % 1013 hPa 0,0 l/m 24,1 km/h (4 Bft) SW45 225 0 min 13,3 klux 0,00 min 13,5 C 8,3 C
21.06.2011 10:01 14,7 C 94 % 1013 hPa 0,3 l/m 28,9 km/h (5 Bft) W-SW45 240 0 min 25,4 klux 15,00 min 13,7 C 7,5 C
21.06.2011 10:16 15,2 C 94 % 1013 hPa 0,0 l/m 25,5 km/h (4 Bft) W45 260 0 min 28,6 klux 0,00 min 14,2 C 8,8 C
21.06.2011 10:32 15,3 C 93 % 1013 hPa 0,0 l/m 28,0 km/h (4 Bft) W-SW22.5 250 0 min 25,6 klux 0,00 min 14,2 C 8,4 C
21.06.2011 10:46 15,3 C 93 % 1013 hPa 0,0 l/m 30,6 km/h (5 Bft) W-SW67.5 245 0 min 33,8 klux 0,00 min 14,2 C 8,0 C
21.06.2011 11:01 15,8 C 93 % 1013 hPa 0,0 l/m 20,5 km/h (4 Bft) W-SW22.5 250 0 min 35,0 klux 0,00 min 14,7 C 10,7 C
21.06.2011 11:16 15,9 C 91 % 1013 hPa 0,0 l/m 24,0 km/h (4 Bft) W45 270 0 min 22,8 klux 0,00 min 14,4 C 10,0 C
21.06.2011 11:31 15,4 C 90 % 1013 hPa 0,3 l/m 21,8 km/h (4 Bft) W22.5 270 0 min 27,8 klux 15,00 min 13,8 C 9,8 C
21.06.2011 11:46 15,3 C 90 % 1014 hPa 0,3 l/m 23,6 km/h (4 Bft) W-SW45 250 0 min 29,8 klux 15,00 min 13,7 C 9,3 C
21.06.2011 12:02 15,4 C 91 % 1014 hPa 0,0 l/m 19,0 km/h (3 Bft) SW22.5 235 0 min 29,4 klux 0,00 min 13,9 C 10,5 C
21.06.2011 12:16 15,6 C 91 % 1014 hPa 0,0 l/m 13,3 km/h (3 Bft) W-SW22.5 250 0 min 27,6 klux 0,00 min 14,1 C 12,5 C
21.06.2011 12:31 16,3 C 91 % 1014 hPa 0,0 l/m 10,0 km/h (2 Bft) W-SW22.5 255 0 min 41,9 klux 0,00 min 14,8 C 14,6 C
21.06.2011 12:46 17,1 C 89 % 1014 hPa 0,0 l/m 13,6 km/h (3 Bft) W-SW45 240 0 min 41,3 klux 0,00 min 15,3 C 14,2 C
21.06.2011 13:01 16,6 C 87 % 1014 hPa 0,0 l/m 18,9 km/h (3 Bft) W22.5 260 0 min 22,9 klux 0,00 min 14,4 C 12,1 C
21.06.2011 13:16 17,3 C 87 % 1014 hPa 0,0 l/m 19,1 km/h (3 Bft) W-SW45 250 0 min 53,5 klux 0,00 min 15,1 C 12,9 C
21.06.2011 13:31 18,3 C 87 % 1014 hPa 0,0 l/m 22,2 km/h (4 Bft) W-SW67.5 240 0 min 58,6 klux 0,00 min 16,1 C 13,6 C
21.06.2011 13:47 18,1 C 86 % 1014 hPa 0,0 l/m 21,9 km/h (4 Bft) W-SW45 250 0 min 46,0 klux 0,00 min 15,7 C 13,4 C
21.06.2011 14:01 17,5 C 87 % 1014 hPa 0,3 l/m 24,6 km/h (4 Bft) W45 260 14 min 81,4 klux 14,00 min 15,3 C 12,1 C
21.06.2011 14:16 17,5 C 86 % 1014 hPa 0,0 l/m 22,5 km/h (4 Bft) W-SW45 250 0 min 40,1 klux 0,00 min 15,1 C 12,5 C
21.06.2011 14:31 17,9 C 86 % 1014 hPa 0,0 l/m 29,2 km/h (5 Bft) W-SW22.5 255 15 min 116 klux 0,00 min 15,5 C 11,9 C
21.06.2011 14:46 18,8 C 85 % 1014 hPa 0,0 l/m 29,9 km/h (5 Bft) W-SW45 255 15 min 107 klux 0,00 min 16,2 C 13,0 C
21.06.2011 15:01 18,8 C 81 % 1014 hPa 0,0 l/m 32,5 km/h (5 Bft) W-SW22.5 250 0 min 47,2 klux 0,00 min 15,5 C 12,7 C
21.06.2011 15:16 18,9 C 81 % 1014 hPa 0,0 l/m 37,3 km/h (5 Bft) W-SW45 255 15 min 75,0 klux 0,00 min 15,6 C 12,3 C
21.06.2011 15:32 19,4 C 78 % 1014 hPa 0,0 l/m 35,3 km/h (5 Bft) W45 260 16 min 108 klux 0,00 min 15,5 C 13,3 C
21.06.2011 15:46 19,0 C 78 % 1014 hPa 0,0 l/m 40,1 km/h (6 Bft) W22.5 260 0 min 51,4 klux 0,00 min 15,1 C 12,2 C
21.06.2011 16:01 19,4 C 75 % 1014 hPa 0,0 l/m 35,5 km/h (5 Bft) W67.5 265 15 min 101 klux 0,00 min 14,8 C 13,3 C
21.06.2011 16:16 19,6 C 74 % 1014 hPa 0,0 l/m 33,2 km/h (5 Bft) W-SW45 250 15 min 89,6 klux 0,00 min 14,8 C 13,8 C
21.06.2011 16:31 19,4 C 73 % 1014 hPa 0,0 l/m 40,5 km/h (6 Bft) W-SW45 250 15 min 77,5 klux 0,00 min 14,4 C 12,8 C
21.06.2011 16:46 19,1 C 72 % 1014 hPa 0,0 l/m 33,8 km/h (5 Bft) W-SW45 240 0 min 57,6 klux 0,00 min 13,9 C 13,0 C
21.06.2011 17:02 18,9 C 70 % 1014 hPa 0,0 l/m 43,3 km/h (6 Bft) W-SW45 250 0 min 56,7 klux 0,00 min 13,3 C 11,8 C
21.06.2011 17:16 19,1 C 72 % 1014 hPa 0,0 l/m 35,4 km/h (5 Bft) W-SW67.5 250 0 min 58,8 klux 0,00 min 13,9 C 12,8 C
21.06.2011 17:31 18,6 C 73 % 1014 hPa 0,0 l/m 32,0 km/h (5 Bft) SW45 230 0 min 29,0 klux 0,00 min 13,7 C 12,5 C
21.06.2011 17:46 18,4 C 72 % 1014 hPa 0,0 l/m 31,5 km/h (5 Bft) SW67.5 235 0 min 31,3 klux 0,00 min 13,3 C 12,3 C
21.06.2011 18:01 18,9 C 72 % 1014 hPa 0,0 l/m 34,0 km/h (5 Bft) W22.5 260 0 min 55,9 klux 0,00 min 13,7 C 12,7 C
21.06.2011 18:16 18,8 C 72 % 1014 hPa 0,0 l/m 28,1 km/h (4 Bft) W22.5 260 0 min 44,7 klux 0,00 min 13,6 C 13,3 C
21.06.2011 18:31 18,4 C 72 % 1014 hPa 0,0 l/m 34,5 km/h (5 Bft) W-SW45 255 0 min 39,0 klux 0,00 min 13,3 C 11,9 C
21.06.2011 18:47 18,2 C 74 % 1014 hPa 0,0 l/m 29,7 km/h (5 Bft) W-SW45 250 0 min 31,7 klux 0,00 min 13,5 C 12,2 C
21.06.2011 19:01 18,2 C 73 % 1014 hPa 0,0 l/m 25,6 km/h (4 Bft) W-SW67.5 255 0 min 37,2 klux 0,00 min 13,3 C 12,8 C
21.06.2011 19:16 17,8 C 74 % 1014 hPa 0,0 l/m 26,3 km/h (4 Bft) W-SW45 240 0 min 23,1 klux 0,00 min 13,1 C 12,2 C
21.06.2011 19:31 17,6 C 76 % 1014 hPa 0,0 l/m 25,7 km/h (4 Bft) W-SW45 245 0 min 24,0 klux 0,00 min 13,3 C 12,0 C
21.06.2011 19:46 17,3 C 76 % 1014 hPa 0,0 l/m 28,0 km/h (4 Bft) SW45 230 0 min 15,7 klux 0,00 min 13,0 C 11,2 C
21.06.2011 20:01 16,8 C 78 % 1014 hPa 0,0 l/m 19,0 km/h (3 Bft) W-SW22.5 240 0 min 9,9 klux 0,00 min 12,9 C 12,3 C
21.06.2011 20:17 16,5 C 79 % 1014 hPa 0,0 l/m 15,0 km/h (3 Bft) SW45 225 0 min 9,2 klux 0,00 min 12,8 C 13,0 C
21.06.2011 20:31 16,4 C 80 % 1014 hPa 0,0 l/m 22,3 km/h (4 Bft) W-SW45 240 0 min 7,96 klux 0,00 min 12,9 C 11,0 C
21.06.2011 20:46 16,1 C 80 % 1014 hPa 0,0 l/m 15,4 km/h (3 Bft) SW45 220 0 min 7,26 klux 0,00 min 12,6 C 12,4 C
21.06.2011 21:01 15,7 C 81 % 1014 hPa 0,0 l/m 16,1 km/h (3 Bft) SW45 220 0 min 4,50 klux 0,00 min 12,4 C 11,7 C
21.06.2011 21:16 15,5 C 82 % 1014 hPa 0,0 l/m 14,3 km/h (3 Bft) S-SW45 210 0 min 4,12 klux 0,00 min 12,4 C 12,0 C
21.06.2011 21:31 15,0 C 84 % 1014 hPa 0,0 l/m 11,0 km/h (2 Bft) S-SW22.5 195 0 min 2,31 klux 0,00 min 12,3 C 12,7 C
21.06.2011 21:47 14,6 C 85 % 1014 hPa 0,0 l/m 10,7 km/h (2 Bft) S22.5 185 0 min 996 lux 0,00 min 12,1 C 12,4 C
21.06.2011 22:01 14,2 C 85 % 1014 hPa 0,0 l/m 4,5 km/h (1 Bft) S-SW 205 0 min 418 lux 0,00 min 11,7 C 14,2 C
21.06.2011 22:16 13,9 C 86 % 1014 hPa 0,0 l/m 8,5 km/h (2 Bft) S-SW22.5 200 0 min 120 lux 0,00 min 11,6 C 12,7 C
21.06.2011 22:31 13,4 C 88 % 1014 hPa 0,0 l/m 7,9 km/h (2 Bft) S 170 0 min 22 lux 0,00 min 11,5 C 12,5 C
21.06.2011 22:46 13,2 C 89 % 1014 hPa 0,0 l/m 8,5 km/h (2 Bft) S 185 0 min 3 lux 0,00 min 11,4 C 11,9 C
21.06.2011 23:01 13,2 C 90 % 1014 hPa 0,0 l/m 7,2 km/h (2 Bft) SW22.5 215 0 min 0 lux 0,00 min 11,6 C 12,7 C
21.06.2011 23:17 13,1 C 90 % 1014 hPa 0,0 l/m 7,6 km/h (2 Bft) SW22.5 220 0 min 0 lux 0,00 min 11,5 C 12,3 C
21.06.2011 23:31 13,3 C 91 % 1014 hPa 0,0 l/m 3,7 km/h (1 Bft) SW22.5 220 0 min 0 lux 0,00 min 11,9 C 13,3 C
21.06.2011 23:46 13,5 C 92 % 1014 hPa 0,0 l/m 1,6 km/h (1 Bft) SW45 220 0 min 0 lux 0,00 min 12,2 C 13,5 C
21.06.2011 23:56 13,8 C 92 % 1014 hPa 0,0 l/m 8,5 km/h (2 Bft) W-SW22.5 240 0 min 0 lux 0,00 min 12,5 C 12,6 C
_ Min-Zeit 00:31 17:02 03:47 - 02:01 - - - - - 22:46 06:02
Minimum _ 13,0 C 70 % 1012 hPa - 0,0 km/h (0 Bft) - - - - - 11,4 C 7,0 C
_ Max-Zeit 16:16 06:02 11:46 05:47 17:02 - - 15:32 14:31 00:01 14:46 12:31
Maximum _ 19,6 C 98 % 1014 hPa 3,3 l/m 43,3 km/h
W-SW (6 Bft)
- - 16 min 116 klux 15,00 min 16,2 C 14,6 C
Durchschnitt _ 15,5 C 89 % 1014 hPa #8,4 l/m 19,4 km/h (3 Bft) W-SW - #2:00 h 22,4 klux #3:27 h 13,5 C 11,3 C